createdAt,value
2023-05-25T00:03:40.481Z,3.58
2023-05-25T00:08:42.178Z,3.10
2023-05-25T00:13:43.746Z,3.08
2023-05-25T00:18:45.537Z,3.85
2023-05-25T00:23:46.992Z,3.97
2023-05-25T00:28:48.489Z,3.70
2023-05-25T00:33:50.510Z,3.35
2023-05-25T00:38:52.106Z,3.95
2023-05-25T00:43:53.634Z,2.90
2023-05-25T00:48:56.311Z,2.75
2023-05-25T00:53:57.755Z,3.38
2023-05-25T00:59:06.375Z,3.65
2023-05-25T01:04:09.876Z,3.40
2023-05-25T01:09:16.174Z,3.28
2023-05-25T01:14:21.794Z,3.10
2023-05-25T01:19:23.307Z,3.30
2023-05-25T01:24:33.515Z,3.72
2023-05-25T01:29:37.102Z,3.63
2023-05-25T01:34:40.884Z,4.15
2023-05-25T01:39:42.365Z,3.10
2023-05-25T01:44:44.882Z,3.63
2023-05-25T01:49:57.346Z,3.08
2023-05-25T01:55:06.571Z,3.80
2023-05-25T02:00:10.461Z,4.13
2023-05-25T02:05:12.265Z,3.95
2023-05-25T02:10:13.703Z,3.70
2023-05-25T02:15:16.136Z,4.10
2023-05-25T02:20:17.723Z,3.60
2023-05-25T02:25:19.337Z,3.47
2023-05-25T02:30:21.178Z,4.00
2023-05-25T02:35:23.766Z,3.55
2023-05-25T02:40:25.398Z,3.88
2023-05-25T02:45:26.870Z,3.80
2023-05-25T02:50:28.395Z,3.63
2023-05-25T02:55:30.058Z,4.07
2023-05-25T03:00:31.962Z,3.95
2023-05-25T03:05:35.374Z,3.85
2023-05-25T03:10:36.951Z,3.92
2023-05-25T03:15:40.149Z,3.40
2023-05-25T03:20:42.423Z,3.28
2023-05-25T03:25:44.100Z,3.28
2023-05-25T03:30:46.143Z,3.80
2023-05-25T03:35:47.586Z,3.47
2023-05-25T03:40:49.052Z,4.20
2023-05-25T03:45:50.695Z,3.90
2023-05-25T03:50:55.104Z,3.83
2023-05-25T03:55:58.421Z,3.45
2023-05-25T04:01:00.126Z,3.92
2023-05-25T04:06:02.185Z,3.63
2023-05-25T04:11:03.670Z,3.42
2023-05-25T04:16:05.545Z,3.88
2023-05-25T04:21:07.010Z,3.28
2023-05-25T04:26:10.397Z,3.78
2023-05-25T04:31:13.415Z,3.67
2023-05-25T04:36:14.933Z,3.90
2023-05-25T04:41:16.437Z,3.97
2023-05-25T04:46:18.178Z,4.38
2023-05-25T04:51:20.128Z,3.38
2023-05-25T04:56:25.724Z,3.40
2023-05-25T05:01:29.185Z,3.78
2023-05-25T05:06:32.226Z,3.95
2023-05-25T05:11:33.751Z,3.72
2023-05-25T05:16:35.670Z,3.17
2023-05-25T05:21:37.381Z,3.55
2023-05-25T05:26:56.132Z,2.80
2023-05-25T05:32:00.226Z,3.80
2023-05-25T05:37:01.722Z,3.47
2023-05-25T05:42:03.559Z,3.28
2023-05-25T05:47:05.427Z,3.50
2023-05-25T05:52:09.386Z,3.33
2023-05-25T05:57:10.876Z,2.72
2023-05-25T06:02:12.397Z,3.08
2023-05-25T06:07:13.902Z,2.60
2023-05-25T06:12:15.499Z,4.32
2023-05-25T06:17:17.021Z,2.85
2023-05-25T06:22:18.502Z,2.60
2023-05-25T06:27:19.945Z,2.63
2023-05-25T06:32:21.688Z,2.83
2023-05-25T06:37:23.269Z,2.70
2023-05-25T06:42:24.744Z,3.45
2023-05-25T06:47:26.244Z,2.53
2023-05-25T06:52:31.578Z,3.00
2023-05-25T06:57:33.074Z,3.88
2023-05-25T07:02:34.939Z,3.30
2023-05-25T07:07:36.392Z,3.50
2023-05-25T07:12:38.073Z,2.78
2023-05-25T07:17:39.555Z,3.83
2023-05-25T07:22:42.256Z,3.53
2023-05-25T07:27:48.373Z,3.35
2023-05-25T07:32:49.906Z,3.28
2023-05-25T07:38:01.916Z,3.88
2023-05-25T07:43:03.880Z,3.35
2023-05-25T07:48:07.748Z,3.40
2023-05-25T07:53:09.325Z,3.65
2023-05-25T07:58:10.781Z,3.38
2023-05-25T08:03:12.480Z,3.40
2023-05-25T08:08:14.403Z,3.42
2023-05-25T08:13:16.458Z,3.47
2023-05-25T08:18:19.790Z,3.10
2023-05-25T08:23:22.046Z,3.50
2023-05-25T08:28:23.534Z,4.07
2023-05-25T08:33:26.063Z,3.90
2023-05-25T08:38:28.350Z,4.05
2023-05-25T08:43:30.983Z,4.18
2023-05-25T08:48:41.591Z,3.53
2023-05-25T08:53:45.576Z,3.83
2023-05-25T08:58:58.067Z,4.05
2023-05-25T09:04:01.393Z,4.72
2023-05-25T09:09:06.246Z,4.93
2023-05-25T09:14:10.100Z,3.63
2023-05-25T09:19:11.601Z,4.75
2023-05-25T09:24:13.692Z,5.25
2023-05-25T09:29:16.596Z,4.05
2023-05-25T09:34:19.880Z,4.38
2023-05-25T09:39:22.358Z,4.63
2023-05-25T09:44:24.038Z,5.32
2023-05-25T09:49:26.927Z,5.05
2023-05-25T09:54:29.609Z,4.68
2023-05-25T09:59:31.526Z,4.68
2023-05-25T10:04:33.020Z,4.45
2023-05-25T10:09:46.441Z,4.25
2023-05-25T10:14:50.952Z,4.68
2023-05-25T10:19:59.556Z,4.75
2023-05-25T10:25:08.118Z,4.18
2023-05-25T10:30:10.092Z,3.75
2023-05-25T10:35:12.189Z,4.22
2023-05-25T10:40:15.260Z,4.00
2023-05-25T10:45:17.764Z,3.95
2023-05-25T10:50:24.271Z,4.43
2023-05-25T10:55:33.086Z,5.05
2023-05-25T11:00:44.608Z,3.90
2023-05-25T11:05:53.564Z,4.82
2023-05-25T11:11:01.733Z,4.13
2023-05-25T11:16:17.663Z,4.43
2023-05-25T11:21:32.655Z,3.88
2023-05-25T11:26:35.486Z,3.90
2023-05-25T11:31:43.417Z,4.20
2023-05-25T11:36:46.090Z,4.47
2023-05-25T11:41:55.683Z,5.00
2023-05-25T11:47:01.950Z,3.92
2023-05-25T11:52:07.701Z,5.03
2023-05-25T11:57:25.467Z,4.72
2023-05-25T12:02:31.874Z,4.05
2023-05-25T12:07:35.282Z,3.78
2023-05-25T12:13:02.320Z,3.75
2023-05-25T12:18:04.264Z,3.58
2023-05-25T12:23:06.302Z,3.60
2023-05-25T12:28:19.668Z,4.20
2023-05-25T12:33:27.940Z,3.40
2023-05-25T12:38:31.677Z,3.30
2023-05-25T12:43:41.153Z,3.45
2023-05-25T12:48:42.855Z,4.53
2023-05-25T12:53:51.563Z,3.22
2023-05-25T12:58:53.153Z,3.70
2023-05-25T13:03:54.756Z,4.50
2023-05-25T13:08:56.229Z,3.55
2023-05-25T13:13:57.673Z,3.90
2023-05-25T13:18:59.113Z,3.75
2023-05-25T13:24:00.689Z,3.63
2023-05-25T13:29:02.142Z,4.00
2023-05-25T13:34:03.725Z,3.90
2023-05-25T13:39:05.404Z,4.00
2023-05-25T13:44:07.065Z,4.25
2023-05-25T13:49:08.510Z,3.67
2023-05-25T13:54:09.992Z,4.00
2023-05-25T13:59:11.503Z,4.15
2023-05-25T14:04:17.620Z,3.65
2023-05-25T14:09:19.642Z,4.00
2023-05-25T14:14:31.531Z,4.30
2023-05-25T14:19:35.182Z,3.45
2023-05-25T14:24:36.682Z,3.80
2023-05-25T14:29:38.219Z,3.42
2023-05-25T14:34:39.988Z,3.70
2023-05-25T14:39:41.475Z,3.47
2023-05-25T14:44:42.961Z,4.05
2023-05-25T14:49:44.935Z,3.30
2023-05-25T14:54:46.530Z,3.20
2023-05-25T14:59:51.207Z,3.05
2023-05-25T15:04:54.978Z,3.15
2023-05-25T15:09:56.470Z,3.47
2023-05-25T15:14:57.913Z,3.50
2023-05-25T15:19:59.412Z,3.35
2023-05-25T15:25:02.557Z,3.17
2023-05-25T15:30:07.132Z,3.75
2023-05-25T15:35:09.070Z,2.70
2023-05-25T15:40:11.396Z,3.85
2023-05-25T15:45:12.986Z,3.33
2023-05-25T15:50:14.566Z,3.00
2023-05-25T15:55:16.225Z,3.20
2023-05-25T16:00:18.006Z,3.10
2023-05-25T16:05:19.450Z,3.70
2023-05-25T16:10:20.996Z,3.55
2023-05-25T16:15:23.728Z,4.45
2023-05-25T16:20:25.221Z,3.05
2023-05-25T16:25:26.795Z,3.38
2023-05-25T16:30:28.296Z,2.78
2023-05-25T16:35:29.766Z,3.47
2023-05-25T16:40:33.507Z,3.10
2023-05-25T16:45:35.125Z,3.88
2023-05-25T16:50:36.586Z,3.50
2023-05-25T16:55:38.117Z,3.28
2023-05-25T17:00:39.676Z,3.45
2023-05-25T17:05:41.254Z,3.08
2023-05-25T17:10:47.456Z,3.33
2023-05-25T17:15:49.454Z,3.08
2023-05-25T17:20:51.110Z,3.00
2023-05-25T17:25:52.568Z,3.17
2023-05-25T17:30:54.582Z,2.80
2023-05-25T17:35:56.180Z,2.92
2023-05-25T17:40:57.625Z,2.58
2023-05-25T17:45:59.336Z,3.50
2023-05-25T17:51:00.872Z,2.67
2023-05-25T17:56:02.320Z,3.28
2023-05-25T18:01:04.283Z,2.75
2023-05-25T18:06:05.991Z,3.10
2023-05-25T18:11:07.472Z,3.42
2023-05-25T18:16:09.004Z,2.75
2023-05-25T18:21:10.492Z,2.70
2023-05-25T18:26:11.987Z,2.97
2023-05-25T18:31:13.627Z,3.00
2023-05-25T18:36:15.116Z,3.28
2023-05-25T18:41:17.361Z,3.10
2023-05-25T18:46:20.290Z,2.80
2023-05-25T18:51:23.274Z,3.50
2023-05-25T18:56:24.780Z,2.70
2023-05-25T19:01:26.322Z,3.03
2023-05-25T19:06:27.816Z,2.63
2023-05-25T19:11:29.442Z,3.47
2023-05-25T19:16:31.015Z,3.03
2023-05-25T19:21:33.213Z,3.13
2023-05-25T19:26:37.797Z,3.65
2023-05-25T19:31:39.322Z,2.63
2023-05-25T19:36:40.950Z,3.10
2023-05-25T19:41:42.468Z,2.92
2023-05-25T19:46:44.524Z,3.25
2023-05-25T19:51:47.667Z,3.80
2023-05-25T19:56:49.575Z,3.60
2023-05-25T20:01:51.132Z,3.03
2023-05-25T20:06:52.698Z,3.42
2023-05-25T20:11:54.224Z,3.33
2023-05-25T20:16:56.283Z,4.20
2023-05-25T20:21:59.542Z,3.78
2023-05-25T20:27:01.993Z,3.80
2023-05-25T20:32:03.585Z,3.75
2023-05-25T20:37:05.293Z,4.00
2023-05-25T20:42:07.006Z,4.35
2023-05-25T20:47:08.666Z,4.60
2023-05-25T20:52:10.144Z,4.10
2023-05-25T20:57:12.216Z,4.00
2023-05-25T21:02:13.763Z,4.15
2023-05-25T21:07:15.270Z,5.70
2023-05-25T21:12:16.913Z,4.90
2023-05-25T21:17:21.259Z,5.30
2023-05-25T21:22:22.734Z,4.80
2023-05-25T21:27:24.255Z,4.95
2023-05-25T21:32:25.769Z,5.13
2023-05-25T21:37:28.086Z,4.63
2023-05-25T21:42:29.591Z,4.35
2023-05-25T21:47:31.110Z,5.22
2023-05-25T21:52:32.640Z,4.38
2023-05-25T21:57:34.124Z,5.15
2023-05-25T22:02:35.895Z,4.97
2023-05-25T22:07:37.446Z,4.85
2023-05-25T22:12:38.909Z,5.72
2023-05-25T22:17:40.740Z,4.68
2023-05-25T22:22:42.357Z,5.07
2023-05-25T22:27:43.822Z,5.43
2023-05-25T22:32:45.453Z,5.03
2023-05-25T22:37:46.943Z,5.20
2023-05-25T22:42:51.242Z,5.65
2023-05-25T22:47:52.761Z,6.40
2023-05-25T22:52:54.227Z,5.30
2023-05-25T22:57:55.903Z,5.10
2023-05-25T23:02:57.637Z,5.63
2023-05-25T23:07:59.557Z,5.00
2023-05-25T23:13:01.110Z,5.13
2023-05-25T23:18:02.596Z,5.03
2023-05-25T23:23:04.162Z,5.15
2023-05-25T23:28:05.704Z,5.40
2023-05-25T23:33:08.420Z,6.18
2023-05-25T23:38:10.009Z,5.38
2023-05-25T23:43:12.801Z,5.80
2023-05-25T23:48:15.654Z,5.72
2023-05-25T23:53:17.130Z,5.97
2023-05-25T23:58:18.607Z,6.85
